createdAt,value
2017-12-26T00:00:12.301Z,969.04
2017-12-26T00:01:12.360Z,969.10
2017-12-26T00:02:12.404Z,969.11
2017-12-26T00:03:12.421Z,969.07
2017-12-26T00:04:12.462Z,969.05
2017-12-26T00:05:12.501Z,969.04
2017-12-26T00:06:12.548Z,969.03
2017-12-26T00:07:12.607Z,968.97
2017-12-26T00:08:12.624Z,968.99
2017-12-26T00:09:12.661Z,968.99
2017-12-26T00:10:12.700Z,969.03
2017-12-26T00:11:12.741Z,969.07
2017-12-26T00:12:12.797Z,969.05
2017-12-26T00:13:12.829Z,969.06
2017-12-26T00:14:12.879Z,968.99
2017-12-26T00:15:12.901Z,968.94
2017-12-26T00:16:12.940Z,968.91
2017-12-26T00:17:12.989Z,968.90
2017-12-26T00:18:13.038Z,968.95
2017-12-26T00:19:13.059Z,968.95
2017-12-26T00:20:13.099Z,968.95
2017-12-26T00:21:13.144Z,968.82
2017-12-26T00:22:13.181Z,968.92
2017-12-26T00:23:13.238Z,968.90
2017-12-26T00:24:13.266Z,968.83
2017-12-26T00:25:13.353Z,968.76
2017-12-26T00:26:13.338Z,968.79
2017-12-26T00:27:13.378Z,968.81
2017-12-26T00:28:13.435Z,968.83
2017-12-26T00:29:13.465Z,968.79
2017-12-26T00:30:13.499Z,968.75
2017-12-26T00:31:13.538Z,968.76
2017-12-26T00:32:13.578Z,968.73
2017-12-26T00:33:13.645Z,968.61
2017-12-26T00:34:14.204Z,968.57
2017-12-26T00:35:13.698Z,968.62
2017-12-26T00:36:13.736Z,968.56
2017-12-26T00:37:13.782Z,968.49
2017-12-26T00:38:13.849Z,968.48
2017-12-26T00:39:13.857Z,968.54
2017-12-26T00:40:13.894Z,968.52
2017-12-26T00:41:13.933Z,968.51
2017-12-26T00:42:13.986Z,968.53
2017-12-26T00:43:14.032Z,968.52
2017-12-26T00:44:14.052Z,968.50
2017-12-26T00:45:14.096Z,968.48
2017-12-26T00:46:14.132Z,968.50
2017-12-26T00:47:14.172Z,968.44
2017-12-26T00:48:14.232Z,968.45
2017-12-26T00:49:14.254Z,968.42
2017-12-26T00:50:14.291Z,968.42
2017-12-26T00:51:14.354Z,968.40
2017-12-26T00:52:14.374Z,968.41
2017-12-26T00:53:14.412Z,968.45
2017-12-26T00:54:14.450Z,968.45
2017-12-26T00:55:14.490Z,968.46
2017-12-26T00:56:14.548Z,968.46
2017-12-26T00:57:14.570Z,968.45
2017-12-26T00:58:14.611Z,968.47
2017-12-26T00:59:14.648Z,968.49
2017-12-26T01:00:14.688Z,968.49
2017-12-26T01:01:14.746Z,968.54
2017-12-26T01:02:14.769Z,968.53
2017-12-26T01:03:14.806Z,968.56
2017-12-26T01:04:14.854Z,968.58
2017-12-26T01:05:14.886Z,968.58
2017-12-26T01:06:14.940Z,968.59
2017-12-26T01:07:14.966Z,968.54
2017-12-26T01:08:15.017Z,968.53
2017-12-26T01:09:15.046Z,968.49
2017-12-26T01:10:15.102Z,968.57
2017-12-26T01:11:15.127Z,968.48
2017-12-26T01:12:15.165Z,968.44
2017-12-26T01:13:15.205Z,968.46
2017-12-26T01:14:15.243Z,968.40
2017-12-26T01:15:15.300Z,968.35
2017-12-26T01:16:15.322Z,968.35
2017-12-26T01:17:15.397Z,968.32
2017-12-26T01:18:15.404Z,968.35
2017-12-26T01:19:15.451Z,968.37
2017-12-26T01:20:15.480Z,968.37
2017-12-26T01:21:15.524Z,968.28
2017-12-26T01:22:15.583Z,968.27
2017-12-26T01:23:15.604Z,968.27
2017-12-26T01:24:15.646Z,968.35
2017-12-26T01:25:15.681Z,968.31
2017-12-26T01:26:15.726Z,968.25
2017-12-26T01:27:15.782Z,968.18
2017-12-26T01:28:15.800Z,968.25
2017-12-26T01:29:15.843Z,968.20
2017-12-26T01:30:15.880Z,968.16
2017-12-26T01:31:15.923Z,968.13
2017-12-26T01:32:15.981Z,968.07
2017-12-26T01:33:16.015Z,968.06
2017-12-26T01:34:16.039Z,968.08
2017-12-26T01:35:16.079Z,968.12
2017-12-26T01:36:16.118Z,968.10
2017-12-26T01:37:16.160Z,968.05
2017-12-26T01:38:16.221Z,968.02
2017-12-26T01:39:16.239Z,968.08
2017-12-26T01:40:16.278Z,968.07
2017-12-26T01:41:16.324Z,967.99
2017-12-26T01:42:16.358Z,967.95
2017-12-26T01:43:16.417Z,967.98
2017-12-26T01:44:16.438Z,967.96
2017-12-26T01:45:16.479Z,967.94
2017-12-26T01:46:16.522Z,967.85
2017-12-26T01:47:16.561Z,967.85
2017-12-26T01:48:16.615Z,967.84
2017-12-26T01:49:16.644Z,967.81
2017-12-26T01:50:16.682Z,967.76
2017-12-26T01:51:16.724Z,967.88
2017-12-26T01:52:16.756Z,967.89
2017-12-26T01:53:16.814Z,967.90
2017-12-26T01:54:16.838Z,967.81
2017-12-26T01:55:16.877Z,967.84
2017-12-26T01:56:16.916Z,967.87
2017-12-26T01:57:16.968Z,967.87
2017-12-26T01:58:17.031Z,967.89
2017-12-26T01:59:17.038Z,967.91
2017-12-26T02:00:17.077Z,967.96
2017-12-26T02:01:17.117Z,967.91
2017-12-26T02:02:17.158Z,967.98
2017-12-26T02:03:17.232Z,967.99
2017-12-26T02:04:17.282Z,967.84
2017-12-26T02:05:17.279Z,967.82
2017-12-26T02:06:17.318Z,967.86
2017-12-26T02:07:17.357Z,967.87
2017-12-26T02:08:17.429Z,967.80
2017-12-26T02:09:17.437Z,967.72
2017-12-26T02:10:17.478Z,967.79
2017-12-26T02:11:17.518Z,967.81
2017-12-26T02:12:17.559Z,967.79
2017-12-26T02:13:17.632Z,967.75
2017-12-26T02:14:17.638Z,967.68
2017-12-26T02:15:17.678Z,967.62
2017-12-26T02:16:17.717Z,967.51
2017-12-26T02:17:17.761Z,967.56
2017-12-26T02:18:17.819Z,967.60
2017-12-26T02:19:17.842Z,967.59
2017-12-26T02:20:17.911Z,967.52
2017-12-26T02:21:17.917Z,967.50
2017-12-26T02:22:17.959Z,967.55
2017-12-26T02:23:17.999Z,967.55
2017-12-26T02:24:18.038Z,967.48
2017-12-26T02:25:18.140Z,967.57
2017-12-26T02:26:18.126Z,967.56
2017-12-26T02:27:18.163Z,967.50
2017-12-26T02:28:18.198Z,967.47
2017-12-26T02:29:18.236Z,967.49
2017-12-26T02:30:18.312Z,967.46
2017-12-26T02:31:18.317Z,967.41
2017-12-26T02:32:18.355Z,967.40
2017-12-26T02:33:18.403Z,967.44
2017-12-26T02:34:18.438Z,967.43
2017-12-26T02:35:18.521Z,967.41
2017-12-26T02:36:18.518Z,967.43
2017-12-26T02:37:18.556Z,967.43
2017-12-26T02:38:18.595Z,967.45
2017-12-26T02:39:18.638Z,967.48
2017-12-26T02:40:18.692Z,967.40
2017-12-26T02:41:18.722Z,967.42
2017-12-26T02:42:18.758Z,967.36
2017-12-26T02:43:18.794Z,967.38
2017-12-26T02:44:18.838Z,967.33
2017-12-26T02:45:18.907Z,967.24
2017-12-26T02:46:18.914Z,967.21
2017-12-26T02:47:18.956Z,967.26
2017-12-26T02:48:18.992Z,967.18
2017-12-26T02:49:19.032Z,967.12
2017-12-26T02:50:19.088Z,967.04
2017-12-26T02:51:19.114Z,966.98
2017-12-26T02:52:19.152Z,967.00
2017-12-26T02:53:19.210Z,967.10
2017-12-26T02:54:19.233Z,967.05
2017-12-26T02:55:19.271Z,967.05
2017-12-26T02:56:19.334Z,966.98
2017-12-26T02:57:19.350Z,967.03
2017-12-26T02:58:19.414Z,967.05
2017-12-26T02:59:19.432Z,967.04
2017-12-26T03:00:19.474Z,966.97
2017-12-26T03:01:19.511Z,966.92
2017-12-26T03:02:19.553Z,966.96
2017-12-26T03:03:19.606Z,966.92
2017-12-26T03:04:19.629Z,966.87
2017-12-26T03:05:19.670Z,966.89
2017-12-26T03:06:19.711Z,966.91
2017-12-26T03:07:19.750Z,966.95
2017-12-26T03:08:19.830Z,966.91
2017-12-26T03:09:19.827Z,966.82
2017-12-26T03:10:19.867Z,966.82
2017-12-26T03:11:19.908Z,966.77
2017-12-26T03:12:19.944Z,966.73
2017-12-26T03:13:20.003Z,966.70
2017-12-26T03:14:20.025Z,966.65
2017-12-26T03:15:20.082Z,966.53
2017-12-26T03:16:20.105Z,966.57
2017-12-26T03:17:20.143Z,966.62
2017-12-26T03:18:20.186Z,966.60
2017-12-26T03:19:20.227Z,966.49
2017-12-26T03:20:20.282Z,966.41
2017-12-26T03:21:20.302Z,966.35
2017-12-26T03:22:20.344Z,966.31
2017-12-26T03:23:20.382Z,966.30
2017-12-26T03:24:20.421Z,966.35
2017-12-26T03:25:20.483Z,966.39
2017-12-26T03:26:20.514Z,966.42
2017-12-26T03:27:20.541Z,966.40
2017-12-26T03:28:20.584Z,966.41
2017-12-26T03:29:20.618Z,966.37
2017-12-26T03:30:20.675Z,966.27
2017-12-26T03:31:20.716Z,966.25
2017-12-26T03:32:20.739Z,966.22
2017-12-26T03:33:20.779Z,966.16
2017-12-26T03:34:20.824Z,966.10
2017-12-26T03:35:20.856Z,966.18
2017-12-26T03:36:20.912Z,966.23
2017-12-26T03:37:20.933Z,966.21
2017-12-26T03:38:20.973Z,966.13
2017-12-26T03:39:21.015Z,966.13
2017-12-26T03:40:21.053Z,966.09
2017-12-26T03:41:21.110Z,966.12
2017-12-26T03:42:21.131Z,966.22
2017-12-26T03:43:21.172Z,966.30
2017-12-26T03:44:21.211Z,966.16
2017-12-26T03:45:21.250Z,966.09
2017-12-26T03:46:21.305Z,966.23
2017-12-26T03:47:21.346Z,966.22
2017-12-26T03:48:21.367Z,965.99
2017-12-26T03:49:21.406Z,965.92
2017-12-26T03:50:21.450Z,966.11
2017-12-26T03:51:21.492Z,966.03
2017-12-26T03:52:21.543Z,965.96
2017-12-26T03:53:21.564Z,965.93
2017-12-26T03:54:21.604Z,965.96
2017-12-26T03:55:21.646Z,965.96
2017-12-26T03:56:21.681Z,965.95
2017-12-26T03:57:21.740Z,965.95
2017-12-26T03:58:21.759Z,965.85
2017-12-26T03:59:22.682Z,965.82
2017-12-26T04:00:21.839Z,965.75
2017-12-26T04:01:21.885Z,965.73
2017-12-26T04:02:21.935Z,965.76
2017-12-26T04:03:21.958Z,965.78
2017-12-26T04:04:21.997Z,965.75
2017-12-26T04:05:22.038Z,965.66
2017-12-26T04:06:22.086Z,965.61
2017-12-26T04:07:22.132Z,965.66
2017-12-26T04:08:22.156Z,965.71
2017-12-26T04:09:22.193Z,965.80
2017-12-26T04:10:22.232Z,965.78
2017-12-26T04:11:22.268Z,965.68
2017-12-26T04:12:22.345Z,965.57
2017-12-26T04:13:22.350Z,965.58
2017-12-26T04:14:22.390Z,965.54
2017-12-26T04:15:22.429Z,965.58
2017-12-26T04:16:22.468Z,965.62
2017-12-26T04:17:22.534Z,965.67
2017-12-26T04:18:22.549Z,965.59
2017-12-26T04:19:22.604Z,965.59
2017-12-26T04:20:22.626Z,965.58
2017-12-26T04:21:22.664Z,965.60
2017-12-26T04:22:22.709Z,965.59
2017-12-26T04:23:22.744Z,965.61
2017-12-26T04:24:22.802Z,965.56
2017-12-26T04:25:22.825Z,965.59
2017-12-26T04:26:22.863Z,965.50
2017-12-26T04:27:22.902Z,965.54
2017-12-26T04:28:22.940Z,965.51
2017-12-26T04:29:22.997Z,965.56
2017-12-26T04:30:23.038Z,965.52
2017-12-26T04:31:23.062Z,965.46
2017-12-26T04:32:23.101Z,965.52
2017-12-26T04:33:23.139Z,965.49
2017-12-26T04:34:23.181Z,965.43
2017-12-26T04:35:23.253Z,965.34
2017-12-26T04:36:23.256Z,965.37
2017-12-26T04:37:23.298Z,965.37
2017-12-26T04:38:23.336Z,965.35
2017-12-26T04:39:23.378Z,965.37
2017-12-26T04:40:23.436Z,965.36
2017-12-26T04:41:23.474Z,965.33
2017-12-26T04:42:23.494Z,965.36
2017-12-26T04:43:23.538Z,965.35
2017-12-26T04:44:23.573Z,965.33
2017-12-26T04:45:23.614Z,965.40
2017-12-26T04:46:23.671Z,965.49
2017-12-26T04:47:23.692Z,965.44
2017-12-26T04:48:23.733Z,965.46
2017-12-26T04:49:23.774Z,965.43
2017-12-26T04:50:23.810Z,965.39
2017-12-26T04:51:23.875Z,965.34
2017-12-26T04:52:23.890Z,965.36
2017-12-26T04:53:23.931Z,965.35
2017-12-26T04:54:23.970Z,965.35
2017-12-26T04:55:24.009Z,965.36
2017-12-26T04:56:24.070Z,965.30
2017-12-26T04:57:24.089Z,965.30
2017-12-26T04:58:24.135Z,965.24
2017-12-26T04:59:24.169Z,965.23
2017-12-26T05:00:24.207Z,965.23
2017-12-26T05:01:24.268Z,965.18
2017-12-26T05:02:24.286Z,965.22
2017-12-26T05:03:24.331Z,965.21
2017-12-26T05:04:24.366Z,965.28
2017-12-26T05:05:24.410Z,965.35
2017-12-26T05:06:24.464Z,965.35
2017-12-26T05:07:24.502Z,965.42
2017-12-26T05:08:24.526Z,965.40
2017-12-26T05:09:24.565Z,965.42
2017-12-26T05:10:24.605Z,965.41
2017-12-26T05:11:24.646Z,965.49
2017-12-26T05:12:24.702Z,965.42
2017-12-26T05:13:24.726Z,965.41
2017-12-26T05:14:24.764Z,965.43
2017-12-26T05:15:24.805Z,965.41
2017-12-26T05:16:24.842Z,965.41
2017-12-26T05:17:24.899Z,965.39
2017-12-26T05:18:24.922Z,965.34
2017-12-26T05:19:24.972Z,965.33
2017-12-26T05:20:25.004Z,965.35
2017-12-26T05:21:25.044Z,965.33
2017-12-26T05:22:25.100Z,965.30
2017-12-26T05:23:25.125Z,965.27
2017-12-26T05:24:25.164Z,965.22
2017-12-26T05:25:25.206Z,965.21
2017-12-26T05:26:25.240Z,965.21
2017-12-26T05:27:25.295Z,965.19
2017-12-26T05:28:25.322Z,965.18
2017-12-26T05:29:25.394Z,965.18
2017-12-26T05:30:25.398Z,965.28
2017-12-26T05:31:25.442Z,965.34
2017-12-26T05:32:25.483Z,965.33
2017-12-26T05:33:25.523Z,965.35
2017-12-26T05:34:25.598Z,965.39
2017-12-26T05:35:25.602Z,965.37
2017-12-26T05:36:25.651Z,965.34
2017-12-26T05:37:25.680Z,965.32
2017-12-26T05:38:25.722Z,965.32
2017-12-26T05:39:25.781Z,965.34
2017-12-26T05:40:25.801Z,965.35
2017-12-26T05:41:25.838Z,965.42
2017-12-26T05:42:25.880Z,965.45
2017-12-26T05:43:25.919Z,965.47
2017-12-26T05:44:25.977Z,965.49
2017-12-26T05:45:26.018Z,965.47
2017-12-26T05:46:26.041Z,965.45
2017-12-26T05:47:26.082Z,965.45
2017-12-26T05:48:26.125Z,965.47
2017-12-26T05:49:26.177Z,965.52
2017-12-26T05:50:26.214Z,965.49
2017-12-26T05:51:26.240Z,965.41
2017-12-26T05:52:26.278Z,965.34
2017-12-26T05:53:26.325Z,965.34
2017-12-26T05:54:26.361Z,965.35
2017-12-26T05:55:26.418Z,965.44
2017-12-26T05:56:26.438Z,965.40
2017-12-26T05:57:26.479Z,965.46
2017-12-26T05:58:26.519Z,965.45
2017-12-26T05:59:26.580Z,965.46
2017-12-26T06:00:26.615Z,965.41
2017-12-26T06:01:27.168Z,965.39
2017-12-26T06:02:26.681Z,965.33
2017-12-26T06:03:26.720Z,965.30
2017-12-26T06:04:26.763Z,965.30
2017-12-26T06:05:26.834Z,965.33
2017-12-26T06:06:26.840Z,965.34
2017-12-26T06:07:26.881Z,965.40
2017-12-26T06:08:26.919Z,965.38
2017-12-26T06:09:26.961Z,965.39
2017-12-26T06:10:27.018Z,965.37
2017-12-26T06:11:27.040Z,965.33
2017-12-26T06:12:27.078Z,965.36
2017-12-26T06:13:27.127Z,965.35
2017-12-26T06:14:27.176Z,965.32
2017-12-26T06:15:27.200Z,965.35
2017-12-26T06:16:27.239Z,965.33
2017-12-26T06:17:28.167Z,965.37
2017-12-26T06:18:27.321Z,965.35
2017-12-26T06:19:27.377Z,965.37
2017-12-26T06:20:27.399Z,965.41
2017-12-26T06:21:27.444Z,965.39
2017-12-26T06:22:27.480Z,965.45
2017-12-26T06:23:27.521Z,965.46
2017-12-26T06:24:27.578Z,965.41
2017-12-26T06:25:27.602Z,965.45
2017-12-26T06:26:27.641Z,965.39
2017-12-26T06:27:27.681Z,965.31
2017-12-26T06:28:27.722Z,965.30
2017-12-26T06:29:27.780Z,965.26
2017-12-26T06:30:27.801Z,965.28
2017-12-26T06:31:27.841Z,965.31
2017-12-26T06:32:27.883Z,965.36
2017-12-26T06:33:27.928Z,965.49
2017-12-26T06:34:27.982Z,965.51
2017-12-26T06:35:28.004Z,965.48
2017-12-26T06:36:28.043Z,965.39
2017-12-26T06:37:28.081Z,965.42
2017-12-26T06:38:28.118Z,965.48
2017-12-26T06:39:28.187Z,965.44
2017-12-26T06:40:28.204Z,965.45
2017-12-26T06:41:28.239Z,965.44
2017-12-26T06:42:28.282Z,965.39
2017-12-26T06:43:28.345Z,965.43
2017-12-26T06:44:28.367Z,965.43
2017-12-26T06:45:28.402Z,965.34
2017-12-26T06:46:28.445Z,965.28
2017-12-26T06:47:28.485Z,965.29
2017-12-26T06:48:28.537Z,965.31
2017-12-26T06:49:28.570Z,965.34
2017-12-26T06:50:28.608Z,965.30
2017-12-26T06:51:28.643Z,965.31
2017-12-26T06:52:28.703Z,965.33
2017-12-26T06:53:28.723Z,965.30
2017-12-26T06:54:28.767Z,965.28
2017-12-26T06:55:28.806Z,965.32
2017-12-26T06:56:28.844Z,965.33
2017-12-26T06:57:28.900Z,965.29
2017-12-26T06:58:28.924Z,965.33
2017-12-26T06:59:28.966Z,965.37
2017-12-26T07:00:29.009Z,965.39
2017-12-26T07:01:29.046Z,965.30
2017-12-26T07:02:29.106Z,965.34
2017-12-26T07:03:29.125Z,965.32
2017-12-26T07:04:29.167Z,965.29
2017-12-26T07:05:29.211Z,965.20
2017-12-26T07:06:29.248Z,965.20
2017-12-26T07:07:29.318Z,965.15
2017-12-26T07:08:29.326Z,965.18
2017-12-26T07:09:29.368Z,965.20
2017-12-26T07:10:29.409Z,965.21
2017-12-26T07:11:29.448Z,965.20
2017-12-26T07:12:29.511Z,965.14
2017-12-26T07:13:29.527Z,965.10
2017-12-26T07:14:29.570Z,965.13
2017-12-26T07:15:29.610Z,965.12
2017-12-26T07:16:29.646Z,964.99
2017-12-26T07:17:29.706Z,965.03
2017-12-26T07:18:29.727Z,965.03
2017-12-26T07:19:29.769Z,965.03
2017-12-26T07:20:29.810Z,965.03
2017-12-26T07:21:30.404Z,965.09
2017-12-26T07:22:29.906Z,965.09
2017-12-26T07:23:29.933Z,965.06
2017-12-26T07:24:30.010Z,965.05
2017-12-26T07:25:30.008Z,965.10
2017-12-26T07:26:30.052Z,965.09
2017-12-26T07:27:30.104Z,965.02
2017-12-26T07:28:30.130Z,965.04
2017-12-26T07:29:30.188Z,965.11
2017-12-26T07:30:30.209Z,965.07
2017-12-26T07:31:30.252Z,965.05
2017-12-26T07:32:30.288Z,965.08
2017-12-26T07:33:30.331Z,965.07
2017-12-26T07:34:30.385Z,965.02
2017-12-26T07:35:30.413Z,964.91
2017-12-26T07:36:30.452Z,964.88
2017-12-26T07:37:30.490Z,964.87
2017-12-26T07:38:30.531Z,964.92
2017-12-26T07:39:30.587Z,964.88
2017-12-26T07:40:30.626Z,964.77
2017-12-26T07:41:30.660Z,964.74
2017-12-26T07:42:30.691Z,964.76
2017-12-26T07:43:30.740Z,964.86
2017-12-26T07:44:30.791Z,964.90
2017-12-26T07:45:30.854Z,964.83
2017-12-26T07:46:30.861Z,964.84
2017-12-26T07:47:30.896Z,964.85
2017-12-26T07:48:30.931Z,964.93
2017-12-26T07:49:30.973Z,964.90
2017-12-26T07:50:31.037Z,964.88
2017-12-26T07:51:31.054Z,964.96
2017-12-26T07:52:31.092Z,964.93
2017-12-26T07:53:31.132Z,964.86
2017-12-26T07:54:31.190Z,964.85
2017-12-26T07:55:31.211Z,964.82
2017-12-26T07:56:31.269Z,964.91
2017-12-26T07:57:31.300Z,964.94
2017-12-26T07:58:31.334Z,964.92
2017-12-26T07:59:31.381Z,964.93
2017-12-26T08:00:31.418Z,964.85
2017-12-26T08:01:31.485Z,964.75
2017-12-26T08:02:31.497Z,964.74
2017-12-26T08:03:31.536Z,964.73
2017-12-26T08:04:31.574Z,964.65
2017-12-26T08:05:31.617Z,964.72
2017-12-26T08:06:31.673Z,964.74
2017-12-26T08:07:31.696Z,964.77
2017-12-26T08:08:31.746Z,964.72
2017-12-26T08:09:31.778Z,964.79
2017-12-26T08:10:31.817Z,964.79
2017-12-26T08:11:31.890Z,964.79
2017-12-26T08:12:31.900Z,964.82
2017-12-26T08:13:31.940Z,964.82
2017-12-26T08:14:31.982Z,964.74
2017-12-26T08:15:32.027Z,964.68
2017-12-26T08:16:32.095Z,964.67
2017-12-26T08:17:32.102Z,964.61
2017-12-26T08:18:32.140Z,964.61
2017-12-26T08:19:32.182Z,964.59
2017-12-26T08:20:32.222Z,964.52
2017-12-26T08:21:32.278Z,964.60
2017-12-26T08:22:32.319Z,964.60
2017-12-26T08:23:32.348Z,964.63
2017-12-26T08:24:32.385Z,964.62
2017-12-26T08:25:32.425Z,964.63
2017-12-26T08:26:32.478Z,964.56
2017-12-26T08:27:32.520Z,964.53
2017-12-26T08:28:32.543Z,964.65
2017-12-26T08:29:32.584Z,964.63
2017-12-26T08:30:32.626Z,964.55
2017-12-26T08:31:32.668Z,964.54
2017-12-26T08:32:32.725Z,964.54
2017-12-26T08:33:32.745Z,964.56
2017-12-26T08:34:32.801Z,964.52
2017-12-26T08:35:32.829Z,964.55
2017-12-26T08:36:32.866Z,964.63
2017-12-26T08:37:32.909Z,964.58
2017-12-26T08:38:32.964Z,964.49
2017-12-26T08:39:32.988Z,964.48
2017-12-26T08:40:33.027Z,964.48
2017-12-26T08:41:33.069Z,964.45
2017-12-26T08:42:33.109Z,964.41
2017-12-26T08:43:33.168Z,964.31
2017-12-26T08:44:33.188Z,964.33
2017-12-26T08:45:33.229Z,964.35
2017-12-26T08:46:33.269Z,964.33
2017-12-26T08:47:33.309Z,964.34
2017-12-26T08:48:33.368Z,964.31
2017-12-26T08:49:33.392Z,964.29
2017-12-26T08:50:33.429Z,964.17
2017-12-26T08:51:33.469Z,964.10
2017-12-26T08:52:33.511Z,964.21
2017-12-26T08:53:33.565Z,964.15
2017-12-26T08:54:33.595Z,964.03
2017-12-26T08:55:33.658Z,964.03
2017-12-26T08:56:33.671Z,963.96
2017-12-26T08:57:33.711Z,963.88
2017-12-26T08:58:33.752Z,963.81
2017-12-26T08:59:33.809Z,963.77
2017-12-26T09:00:33.834Z,963.81
2017-12-26T09:01:33.907Z,963.86
2017-12-26T09:02:33.914Z,963.98
2017-12-26T09:03:33.953Z,963.99
2017-12-26T09:04:33.993Z,964.10
2017-12-26T09:05:34.035Z,964.30
2017-12-26T09:06:34.090Z,964.46
2017-12-26T09:07:34.111Z,964.50
2017-12-26T09:08:34.159Z,964.58
2017-12-26T09:09:34.214Z,964.59
2017-12-26T09:10:34.234Z,964.52
2017-12-26T09:11:34.283Z,964.52
2017-12-26T09:12:34.315Z,964.56
2017-12-26T09:13:34.684Z,964.66
2017-12-26T09:14:34.395Z,964.66
2017-12-26T09:15:34.453Z,964.61
2017-12-26T09:16:35.153Z,964.60
2017-12-26T09:17:34.513Z,964.67
2017-12-26T09:18:34.576Z,964.63
2017-12-26T09:19:34.595Z,964.64
2017-12-26T09:20:34.655Z,964.65
2017-12-26T09:21:34.675Z,964.63
2017-12-26T09:22:34.718Z,964.60
2017-12-26T09:23:34.756Z,964.55
2017-12-26T09:24:34.796Z,964.47
2017-12-26T09:25:34.853Z,964.49
2017-12-26T09:26:34.878Z,964.49
2017-12-26T09:27:34.921Z,964.55
2017-12-26T09:28:34.961Z,964.52
2017-12-26T09:29:34.998Z,964.55
2017-12-26T09:30:35.064Z,964.60
2017-12-26T09:31:35.078Z,964.62
2017-12-26T09:32:35.123Z,964.60
2017-12-26T09:33:35.175Z,964.54
2017-12-26T09:34:35.202Z,964.56
2017-12-26T09:35:35.258Z,964.61
2017-12-26T09:36:35.278Z,964.61
2017-12-26T09:37:35.321Z,964.64
2017-12-26T09:38:35.360Z,964.63
2017-12-26T09:39:35.403Z,964.61
2017-12-26T09:40:35.460Z,964.54
2017-12-26T09:41:35.482Z,964.59
2017-12-26T09:42:35.541Z,964.63
2017-12-26T09:43:35.563Z,964.68
2017-12-26T09:44:35.600Z,964.75
2017-12-26T09:45:35.663Z,964.87
2017-12-26T09:46:35.685Z,964.88
2017-12-26T09:47:35.726Z,964.71
2017-12-26T09:48:35.764Z,964.62
2017-12-26T09:49:35.806Z,964.73
2017-12-26T09:50:35.879Z,964.83
2017-12-26T09:51:35.894Z,964.85
2017-12-26T09:52:35.928Z,964.83
2017-12-26T09:53:35.969Z,964.83
2017-12-26T09:54:36.010Z,964.81
2017-12-26T09:55:36.089Z,964.78
2017-12-26T09:56:36.090Z,964.83
2017-12-26T09:57:36.136Z,964.79
2017-12-26T09:58:36.223Z,964.83
2017-12-26T09:59:36.214Z,964.81
2017-12-26T10:00:36.286Z,964.79
2017-12-26T10:01:36.296Z,964.74
2017-12-26T10:02:36.337Z,964.68
2017-12-26T10:03:36.384Z,964.65
2017-12-26T10:04:36.420Z,964.66
2017-12-26T10:05:36.486Z,964.68
2017-12-26T10:06:36.500Z,964.73
2017-12-26T10:07:36.543Z,964.77
2017-12-26T10:08:36.589Z,964.75
2017-12-26T10:09:36.624Z,964.74
2017-12-26T10:10:36.690Z,964.65
2017-12-26T10:11:36.708Z,964.58
2017-12-26T10:12:36.750Z,964.65
2017-12-26T10:13:36.792Z,964.63
2017-12-26T10:14:36.840Z,964.65
2017-12-26T10:15:36.901Z,964.72
2017-12-26T10:16:36.917Z,964.71
2017-12-26T10:17:36.958Z,964.68
2017-12-26T10:18:36.997Z,964.72
2017-12-26T10:19:37.039Z,964.69
2017-12-26T10:20:37.113Z,964.73
2017-12-26T10:21:37.120Z,964.72
2017-12-26T10:22:37.168Z,964.77
2017-12-26T10:23:37.212Z,964.67
2017-12-26T10:24:37.253Z,964.67
2017-12-26T10:25:37.301Z,964.71
2017-12-26T10:26:37.345Z,964.69
2017-12-26T10:27:37.370Z,964.62
2017-12-26T10:28:37.411Z,964.62
2017-12-26T10:29:37.454Z,964.61
2017-12-26T10:30:37.512Z,964.61
2017-12-26T10:31:37.537Z,964.58
2017-12-26T10:32:37.581Z,964.62
2017-12-26T10:33:37.619Z,964.68
2017-12-26T10:34:37.664Z,964.70
2017-12-26T10:35:37.721Z,964.73
2017-12-26T10:36:37.760Z,964.71
2017-12-26T10:37:37.786Z,964.72
2017-12-26T10:38:37.826Z,964.71
2017-12-26T10:39:37.867Z,964.68
2017-12-26T10:40:37.911Z,964.71
2017-12-26T10:41:37.972Z,964.62
2017-12-26T10:42:37.995Z,964.56
2017-12-26T10:43:38.038Z,964.52
2017-12-26T10:44:38.080Z,964.44
2017-12-26T10:45:38.123Z,964.48
2017-12-26T10:46:38.179Z,964.47
2017-12-26T10:47:38.203Z,964.46
2017-12-26T10:48:38.245Z,964.45
2017-12-26T10:49:38.287Z,964.50
2017-12-26T10:50:38.328Z,964.49
2017-12-26T10:51:38.384Z,964.50
2017-12-26T10:52:38.410Z,964.59
2017-12-26T10:53:38.450Z,964.58
2017-12-26T10:54:38.492Z,964.57
2017-12-26T10:55:38.536Z,964.54
2017-12-26T10:56:38.597Z,964.49
2017-12-26T10:57:38.618Z,964.49
2017-12-26T10:58:38.678Z,964.51
2017-12-26T10:59:38.710Z,964.44
2017-12-26T11:00:38.745Z,964.44
2017-12-26T11:01:38.787Z,964.48
2017-12-26T11:02:38.829Z,964.44
2017-12-26T11:03:38.890Z,964.40
2017-12-26T11:04:38.915Z,964.36
2017-12-26T11:05:38.954Z,964.34
2017-12-26T11:06:38.996Z,964.36
2017-12-26T11:07:39.040Z,964.35
2017-12-26T11:08:39.096Z,964.34
2017-12-26T11:09:39.122Z,964.21
2017-12-26T11:10:39.163Z,964.21
2017-12-26T11:11:39.207Z,964.21
2017-12-26T11:12:39.292Z,964.23
2017-12-26T11:13:39.313Z,964.21
2017-12-26T11:14:39.332Z,964.23
2017-12-26T11:15:39.376Z,964.22
2017-12-26T11:16:39.417Z,964.29
2017-12-26T11:17:39.460Z,964.33
2017-12-26T11:18:39.518Z,964.34
2017-12-26T11:19:39.543Z,964.36
2017-12-26T11:20:39.585Z,964.40
2017-12-26T11:21:39.629Z,964.38
2017-12-26T11:22:39.671Z,964.41
2017-12-26T11:23:39.748Z,964.47
2017-12-26T11:24:39.754Z,964.45
2017-12-26T11:25:39.798Z,964.46
2017-12-26T11:26:39.839Z,964.48
2017-12-26T11:27:39.883Z,964.48
2017-12-26T11:28:39.956Z,964.52
2017-12-26T11:29:39.978Z,964.53
2017-12-26T11:30:40.008Z,964.51
2017-12-26T11:31:40.054Z,964.53
2017-12-26T11:32:40.101Z,964.55
2017-12-26T11:33:40.168Z,964.57
2017-12-26T11:34:40.178Z,964.56
2017-12-26T11:35:40.220Z,964.62
2017-12-26T11:36:40.261Z,964.60
2017-12-26T11:37:40.306Z,964.65
2017-12-26T11:38:40.365Z,964.67
2017-12-26T11:39:40.390Z,964.66
2017-12-26T11:40:40.447Z,964.63
2017-12-26T11:41:40.475Z,964.67
2017-12-26T11:42:40.519Z,964.67
2017-12-26T11:43:40.560Z,964.71
2017-12-26T11:44:40.620Z,964.80
2017-12-26T11:45:40.649Z,964.77
2017-12-26T11:46:40.687Z,964.81
2017-12-26T11:47:40.733Z,964.80
2017-12-26T11:48:40.774Z,964.78
2017-12-26T11:49:40.835Z,964.79
2017-12-26T11:50:40.862Z,964.79
2017-12-26T11:51:40.920Z,964.75
2017-12-26T11:52:40.944Z,964.78
2017-12-26T11:53:40.986Z,964.77
2017-12-26T11:54:41.030Z,964.83
2017-12-26T11:55:41.075Z,964.87
2017-12-26T11:56:41.132Z,964.78
2017-12-26T11:57:41.160Z,964.75
2017-12-26T11:58:41.200Z,964.72
2017-12-26T11:59:41.244Z,964.69
2017-12-26T12:00:41.287Z,964.67
2017-12-26T12:01:41.367Z,964.64
2017-12-26T12:02:41.375Z,964.64
2017-12-26T12:03:41.415Z,964.63
2017-12-26T12:04:41.457Z,964.62
2017-12-26T12:05:41.499Z,964.60
2017-12-26T12:06:41.673Z,964.56
2017-12-26T12:07:41.601Z,964.58
2017-12-26T12:08:41.629Z,964.58
2017-12-26T12:09:41.671Z,964.63
2017-12-26T12:10:41.718Z,964.58
2017-12-26T12:11:41.762Z,964.60
2017-12-26T12:12:41.815Z,964.58
2017-12-26T12:13:42.644Z,964.55
2017-12-26T12:14:41.886Z,964.55
2017-12-26T12:15:41.934Z,964.53
2017-12-26T12:16:41.974Z,964.51
2017-12-26T12:17:42.030Z,964.55
2017-12-26T12:18:42.058Z,964.51
2017-12-26T12:19:42.104Z,964.48
2017-12-26T12:20:42.147Z,964.48
2017-12-26T12:21:42.195Z,964.49
2017-12-26T12:22:42.247Z,964.46
2017-12-26T12:23:42.291Z,964.49
2017-12-26T12:24:42.319Z,964.51
2017-12-26T12:25:42.362Z,964.50
2017-12-26T12:26:42.405Z,964.47
2017-12-26T12:27:42.451Z,964.48
2017-12-26T12:28:42.511Z,964.46